Time;durP1;ratioP1;P1;durP2;ratioP2;P2;SDS_P1;SDS_P2;PMS_P1;PMS_P2;Temp;Humidity;BMP_temperature;BMP_pressure;BME280_temperature;BME280_humidity;BME280_pressure;Samples;Min_cycle;Max_cycle;Signal;HPM_P1;HPM_P2
2021/06/23 00:01:09;;;;;;;1999.90;999.90;;;18.90;99.90;;;;;;5072068;28;20173;-77
2021/06/23 00:03:35;;;;;;;1999.90;999.90;;;19.00;99.90;;;;;;5053447;28;20308;-78
2021/06/23 00:06:01;;;;;;;1999.90;999.90;;;19.00;99.90;;;;;;5053349;28;20758;-77
2021/06/23 00:08:26;;;;;;;1999.90;999.90;;;18.90;99.90;;;;;;5071140;28;20177;-77
2021/06/23 00:10:52;;;;;;;1999.90;999.90;;;18.80;99.90;;;;;;5054208;28;20200;-77
2021/06/23 00:13:21;;;;;;;1999.90;999.90;;;18.90;99.90;;;;;;5072670;28;20207;-77
2021/06/23 00:15:48;;;;;;;1999.90;999.90;;;18.90;99.90;;;;;;5072305;28;20180;-77
2021/06/23 00:18:13;;;;;;;1999.90;999.90;;;18.80;99.90;;;;;;5072561;28;20640;-77
2021/06/23 00:20:39;;;;;;;1999.90;999.90;;;18.70;99.90;;;;;;5055138;28;20181;-77
2021/06/23 00:23:05;;;;;;;1999.90;999.90;;;18.60;99.90;;;;;;5072459;28;20213;-77
2021/06/23 00:25:31;;;;;;;1999.90;999.90;;;18.50;99.90;;;;;;5072462;28;20197;-77
2021/06/23 00:27:57;;;;;;;1999.90;999.90;;;18.30;99.90;;;;;;5054550;28;20584;-77
2021/06/23 00:30:24;;;;;;;1999.90;999.90;;;18.30;99.90;;;;;;5072790;28;20169;-76
2021/06/23 00:32:52;;;;;;;1999.90;999.90;;;18.30;99.90;;;;;;5072437;28;20676;-77
2021/06/23 00:35:18;;;;;;;1999.90;999.90;;;18.20;99.90;;;;;;5072507;28;20218;-77
2021/06/23 00:37:44;;;;;;;1999.90;999.90;;;18.20;99.90;;;;;;5072511;28;20340;-77
2021/06/23 00:40:10;;;;;;;1999.90;999.90;;;18.30;99.90;;;;;;5072433;28;20180;-78
2021/06/23 00:42:37;;;;;;;1999.90;999.90;;;18.50;99.90;;;;;;5072423;28;20177;-77
2021/06/23 00:45:08;;;;;;;1999.90;999.90;;;18.60;99.90;;;;;;5054394;28;20189;-77
2021/06/23 00:47:34;;;;;;;1999.90;999.90;;;18.70;99.90;;;;;;5072328;28;20632;-77
2021/06/23 00:50:06;;;;;;;1999.90;999.90;;;18.70;99.90;;;;;;5072138;28;20176;-77
2021/06/23 00:52:32;;;;;;;1999.90;999.90;;;18.60;99.90;;;;;;5072507;28;20173;-78
2021/06/23 00:54:57;;;;;;;1999.90;999.90;;;18.60;99.90;;;;;;5072359;28;20181;-77
2021/06/23 00:57:23;;;;;;;1999.90;999.90;;;18.50;99.90;;;;;;5072847;28;20183;-77
2021/06/23 00:59:54;;;;;;;1999.90;999.90;;;18.60;99.90;;;;;;5072680;28;20692;-77
2021/06/23 01:02:20;;;;;;;1999.90;999.90;;;18.70;99.90;;;;;;5073407;28;20187;-77
2021/06/23 01:04:48;;;;;;;1999.90;999.90;;;18.60;99.90;;;;;;5075748;28;20247;-77
2021/06/23 01:07:15;;;;;;;1999.90;999.90;;;18.60;99.90;;;;;;5057876;28;20165;-77
2021/06/23 01:09:41;;;;;;;1999.90;999.90;;;18.60;99.90;;;;;;5075676;28;20189;-77
2021/06/23 01:12:23;;;;;;;1999.90;999.90;;;18.60;99.90;;;;;;5075591;28;20227;-77
2021/06/23 01:14:53;;;;;;;1999.90;999.90;;;18.70;99.90;;;;;;5075623;28;20204;-77
2021/06/23 01:17:20;;;;;;;1999.90;999.90;;;18.80;99.90;;;;;;5076072;28;20169;-77
2021/06/23 01:19:47;;;;;;;1999.90;999.90;;;18.70;99.90;;;;;;5075605;28;20671;-77
2021/06/23 01:22:15;;;;;;;1999.90;999.90;;;18.70;99.90;;;;;;5075849;28;20165;-77
2021/06/23 01:24:42;;;;;;;1999.90;999.90;;;18.50;99.90;;;;;;5075260;28;20343;-77
2021/06/23 01:27:09;;;;;;;1999.90;999.90;;;18.50;99.90;;;;;;5075322;28;20177;-76
2021/06/23 01:29:36;;;;;;;1999.90;999.90;;;18.60;99.90;;;;;;5075357;28;20164;-78
2021/06/23 01:32:02;;;;;;;1999.90;999.90;;;18.50;99.90;;;;;;5057385;28;20173;-77
2021/06/23 01:34:28;;;;;;;1999.90;999.90;;;18.30;99.90;;;;;;5075208;28;20204;-77
2021/06/23 01:36:53;;;;;;;1999.90;999.90;;;18.40;99.90;;;;;;5075265;28;20176;-77
2021/06/23 01:39:19;;;;;;;1999.90;999.90;;;18.50;99.90;;;;;;5075402;28;20173;-77
2021/06/23 01:41:45;;;;;;;1999.90;999.90;;;18.60;99.90;;;;;;5075410;28;20176;-77
2021/06/23 01:44:10;;;;;;;1999.90;999.90;;;18.60;99.90;;;;;;5056119;28;20617;-78
2021/06/23 01:46:36;;;;;;;1999.90;999.90;;;18.60;99.90;;;;;;5070623;28;20588;-77
2021/06/23 01:49:02;;;;;;;1999.90;999.90;;;18.60;99.90;;;;;;5055229;28;20177;-78
2021/06/23 01:51:28;;;;;;;1999.90;999.90;;;18.60;99.90;;;;;;5073025;28;20169;-77
2021/06/23 01:53:53;;;;;;;1999.90;999.90;;;18.50;99.90;;;;;;5055619;28;20201;-77
2021/06/23 01:56:19;;;;;;;1999.90;999.90;;;18.30;99.90;;;;;;5074927;28;20181;-77
2021/06/23 01:58:45;;;;;;;1999.90;999.90;;;18.40;99.90;;;;;;5074923;28;20234;-78
2021/06/23 02:01:22;;;;;;;1999.90;999.90;;;18.50;99.90;;;;;;5073994;28;20261;-77
2021/06/23 02:03:54;;;;;;;1999.90;999.90;;;18.50;99.90;;;;;;5074770;28;20205;-77
2021/06/23 02:06:31;;;;;;;1999.90;999.90;;;18.60;99.90;;;;;;5074733;28;20201;-77
2021/06/23 02:09:30;;;;;;;1999.90;999.90;;;18.60;99.90;;;;;;5056907;28;20172;-78
2021/06/23 02:12:11;;;;;;;1999.90;999.90;;;18.60;99.90;;;;;;5074809;28;20512;-77
2021/06/23 02:14:39;;;;;;;1999.90;999.90;;;18.50;99.90;;;;;;5073486;28;20192;-77
2021/06/23 02:17:08;;;;;;;1999.90;999.90;;;18.60;99.90;;;;;;5074492;28;20173;-77
2021/06/23 02:19:49;;;;;;;1999.90;999.90;;;18.40;99.90;;;;;;5074481;28;20173;-77
2021/06/23 02:22:21;;;;;;;1999.90;999.90;;;18.40;99.90;;;;;;5074854;28;20168;-77
2021/06/23 02:24:50;;;;;;;1999.90;999.90;;;18.40;99.90;;;;;;5056274;28;20711;-77
2021/06/23 02:27:16;;;;;;;1999.90;999.90;;;18.40;99.90;;;;;;5074334;28;20167;-77
2021/06/23 02:29:44;;;;;;;1999.90;999.90;;;18.20;99.90;;;;;;5074383;28;20180;-77
2021/06/23 02:32:14;;;;;;;1999.90;999.90;;;18.10;99.90;;;;;;5074272;28;20205;-77
2021/06/23 02:34:41;;;;;;;1999.90;999.90;;;18.00;99.90;;;;;;5037401;28;20205;-78
2021/06/23 02:37:11;;;;;;;1999.90;999.90;;;18.00;99.90;;;;;;5074222;28;20254;-77
2021/06/23 02:39:37;;;;;;;1999.90;999.90;;;17.90;99.90;;;;;;5062445;28;20177;-77
2021/06/23 02:42:04;;;;;;;1999.90;999.90;;;17.90;99.90;;;;;;5061527;28;20180;-77
2021/06/23 02:44:30;;;;;;;1999.90;999.90;;;17.80;99.90;;;;;;5053471;28;20624;-77
2021/06/23 02:46:56;;;;;;;1999.90;999.90;;;17.80;99.90;;;;;;5060468;28;20177;-78
2021/06/23 02:49:23;;;;;;;1999.90;999.90;;;17.90;99.90;;;;;;5053244;28;20309;-78
2021/06/23 02:51:49;;;;;;;1999.90;999.90;;;17.90;99.90;;;;;;5056466;28;20176;-77
2021/06/23 02:54:15;;;;;;;1999.90;999.90;;;17.90;99.90;;;;;;5060149;28;20279;-78
2021/06/23 02:56:41;;;;;;;1999.90;999.90;;;17.80;99.90;;;;;;5055640;28;20220;-77
2021/06/23 02:59:08;;;;;;;1999.90;999.90;;;17.80;99.90;;;;;;5050827;28;20180;-78
2021/06/23 03:01:33;;;;;;;1999.90;999.90;;;17.80;99.90;;;;;;5057151;28;20227;-77
2021/06/23 03:03:59;;;;;;;1999.90;999.90;;;17.80;99.90;;;;;;5055737;28;20245;-76
2021/06/23 03:06:25;;;;;;;1999.90;999.90;;;17.80;99.90;;;;;;5058939;28;20169;-77
2021/06/23 03:08:51;;;;;;;1999.90;999.90;;;17.90;99.90;;;;;;5056576;28;20169;-77
2021/06/23 03:11:16;;;;;;;1999.90;999.90;;;17.80;99.90;;;;;;5051608;28;20176;-77
2021/06/23 03:13:42;;;;;;;1999.90;999.90;;;17.80;99.90;;;;;;5057923;28;20212;-76
2021/06/23 03:16:08;;;;;;;1999.90;999.90;;;17.70;99.90;;;;;;5057213;28;20197;-77
2021/06/23 03:18:34;;;;;;;1999.90;999.90;;;17.70;99.90;;;;;;5050607;28;20837;-77
2021/06/23 03:21:05;;;;;;;1999.90;999.90;;;17.60;99.90;;;;;;5054396;28;20263;-77
2021/06/23 03:23:31;;;;;;;1999.90;999.90;;;17.60;99.90;;;;;;5053285;28;20575;-77
2021/06/23 03:25:57;;;;;;;1999.90;999.90;;;17.50;99.90;;;;;;5070994;28;20184;-77
2021/06/23 03:28:23;;;;;;;1999.90;999.90;;;17.60;99.90;;;;;;5071152;28;20168;-77
2021/06/23 03:30:49;;;;;;;1999.90;999.90;;;17.70;99.90;;;;;;5071045;28;20172;-77
2021/06/23 03:33:15;;;;;;;1999.90;999.90;;;17.60;99.90;;;;;;5070825;28;20276;-78
2021/06/23 03:35:41;;;;;;;1999.90;999.90;;;17.50;99.90;;;;;;5070978;28;20996;-78
2021/06/23 03:38:07;;;;;;;1999.90;999.90;;;17.40;99.90;;;;;;5071013;28;20186;-78
2021/06/23 03:40:32;;;;;;;1999.90;999.90;;;17.50;99.90;;;;;;5054181;28;20255;-77
2021/06/23 03:42:58;;;;;;;1999.90;999.90;;;17.40;99.90;;;;;;5098175;22;20280;-79
2021/06/23 03:45:24;;;;;;;1999.90;999.90;;;17.40;99.90;;;;;;5071168;28;20254;-77
2021/06/23 03:47:49;;;;;;;1999.90;999.90;;;17.40;99.90;;;;;;5071424;28;20184;-77
2021/06/23 03:50:16;;;;;;;1999.90;999.90;;;17.50;99.90;;;;;;5071364;28;20176;-77
2021/06/23 03:52:42;;;;;;;1999.90;999.90;;;17.60;99.90;;;;;;5057135;28;20201;-77
2021/06/23 03:55:19;;;;;;;1999.90;999.90;;;17.70;99.90;;;;;;5050745;28;20177;-77
2021/06/23 03:57:50;;;;;;;1999.90;999.90;;;17.80;99.90;;;;;;5051446;28;20179;-76
2021/06/23 04:00:17;;;;;;;1999.90;999.90;;;17.80;99.90;;;;;;5034053;28;20204;-78
2021/06/23 04:02:43;;;;;;;1999.90;999.90;;;17.80;99.90;;;;;;5033526;28;20558;-77
2021/06/23 04:05:11;;;;;;;1999.90;999.90;;;17.90;99.90;;;;;;5051539;28;20547;-80
2021/06/23 04:07:37;;;;;;;1999.90;999.90;;;17.90;99.90;;;;;;5050941;28;20177;-79
2021/06/23 04:10:03;;;;;;;1999.90;999.90;;;17.90;99.90;;;;;;5033293;28;20183;-76
2021/06/23 04:12:29;;;;;;;1999.90;999.90;;;17.90;99.90;;;;;;5031730;28;20198;-77
2021/06/23 04:14:54;;;;;;;1999.90;999.90;;;18.00;99.90;;;;;;5049888;28;20192;-78
2021/06/23 04:17:20;;;;;;;1999.90;999.90;;;18.10;99.90;;;;;;5049956;28;20169;-77
2021/06/23 04:19:46;;;;;;;1999.90;999.90;;;18.20;99.90;;;;;;5051817;28;20184;-76
2021/06/23 04:22:11;;;;;;;1999.90;999.90;;;18.20;99.90;;;;;;5052369;28;20590;-76
2021/06/23 04:24:37;;;;;;;1999.90;999.90;;;18.30;99.90;;;;;;5023076;28;20665;-77
2021/06/23 04:27:03;;;;;;;1999.90;999.90;;;18.30;99.90;;;;;;5047312;28;20260;-76
2021/06/23 04:29:29;;;;;;;1999.90;999.90;;;18.30;99.90;;;;;;5032034;28;20268;-77
2021/06/23 04:31:54;;;;;;;1999.90;999.90;;;18.30;99.90;;;;;;5032099;28;20197;-77
2021/06/23 04:34:20;;;;;;;1999.90;999.90;;;18.30;99.90;;;;;;5048522;28;20177;-76
2021/06/23 04:36:45;;;;;;;1999.90;999.90;;;18.30;99.90;;;;;;5051068;28;20178;-76
2021/06/23 04:39:11;;;;;;;1999.90;999.90;;;18.20;99.90;;;;;;5038559;28;20189;-76
2021/06/23 04:41:37;;;;;;;1999.90;999.90;;;18.20;99.90;;;;;;5056377;28;20206;-75
2021/06/23 04:44:03;;;;;;;1999.90;999.90;;;18.30;99.90;;;;;;5038615;28;20633;-76
2021/06/23 04:46:32;;;;;;;1999.90;999.90;;;18.30;99.90;;;;;;5052407;28;20213;-76
2021/06/23 04:49:02;;;;;;;1999.90;999.90;;;18.30;99.90;;;;;;5053664;28;20182;-76
2021/06/23 04:51:28;;;;;;;1999.90;999.90;;;18.30;99.90;;;;;;5056585;28;20276;-75
2021/06/23 04:53:54;;;;;;;1999.90;999.90;;;18.30;99.90;;;;;;5056058;28;20644;-77
2021/06/23 04:56:20;;;;;;;1999.90;999.90;;;18.30;99.90;;;;;;5056232;28;20236;-75
2021/06/23 04:58:46;;;;;;;1999.90;999.90;;;18.40;99.90;;;;;;5037873;28;20227;-77
2021/06/23 05:01:11;;;;;;;1999.90;999.90;;;18.30;99.90;;;;;;5057040;28;20190;-76
2021/06/23 05:03:37;;;;;;;1999.90;999.90;;;18.40;99.90;;;;;;5055973;28;20654;-77
2021/06/23 05:06:03;;;;;;;1999.90;999.90;;;18.40;99.90;;;;;;5035071;28;20256;-78
2021/06/23 05:08:30;;;;;;;1999.90;999.90;;;18.40;99.90;;;;;;5029484;28;20175;-77
2021/06/23 05:10:56;;;;;;;1999.90;999.90;;;18.40;99.90;;;;;;5054050;28;20178;-77
2021/06/23 05:13:22;;;;;;;1999.90;999.90;;;18.40;99.90;;;;;;5043642;28;20201;-83
2021/06/23 05:15:48;;;;;;;1999.90;999.90;;;18.40;99.90;;;;;;5032483;28;20548;-83
2021/06/23 05:18:16;;;;;;;1999.90;999.90;;;18.40;99.90;;;;;;5062929;28;20162;-84
2021/06/23 05:20:42;;;;;;;1999.90;999.90;;;18.40;99.90;;;;;;5063392;28;20546;-83
2021/06/23 05:23:08;;;;;;;1999.90;999.90;;;18.50;99.90;;;;;;5063077;28;20201;-83
2021/06/23 05:25:34;;;;;;;1999.90;999.90;;;18.50;99.90;;;;;;5062179;28;20201;-82
2021/06/23 05:28:00;;;;;;;1999.90;999.90;;;18.50;99.90;;;;;;5040808;28;20176;-83
2021/06/23 05:30:26;;;;;;;1999.90;999.90;;;18.50;99.90;;;;;;5062704;28;20169;-83
2021/06/23 05:32:52;;;;;;;1999.90;999.90;;;18.60;99.90;;;;;;5045146;28;20221;-83
2021/06/23 05:35:19;;;;;;;1999.90;999.90;;;18.60;99.90;;;;;;5044979;28;20208;-83
2021/06/23 05:37:45;;;;;;;1999.90;999.90;;;18.60;99.90;;;;;;5058797;28;20191;-82
2021/06/23 05:40:11;;;;;;;1999.90;999.90;;;18.70;99.90;;;;;;5051884;28;20242;-83
2021/06/23 05:42:37;;;;;;;1999.90;999.90;;;18.80;99.90;;;;;;5052575;28;20227;-83
2021/06/23 05:45:03;;;;;;;1999.90;999.90;;;18.80;99.90;;;;;;5048891;28;20262;-83
2021/06/23 05:47:29;;;;;;;1999.90;999.90;;;18.80;99.90;;;;;;5061761;28;20594;-83
2021/06/23 05:49:54;;;;;;;1999.90;999.90;;;18.90;99.90;;;;;;5043852;28;20182;-83
2021/06/23 05:52:20;;;;;;;1999.90;999.90;;;19.00;99.90;;;;;;5061461;28;20272;-83
2021/06/23 05:54:45;;;;;;;1999.90;999.90;;;19.00;99.90;;;;;;5060807;28;20232;-82
2021/06/23 05:57:11;;;;;;;1999.90;999.90;;;19.00;99.90;;;;;;5039834;28;20190;-83
2021/06/23 05:59:37;;;;;;;1999.90;999.90;;;19.10;99.90;;;;;;5043719;28;20177;-83
2021/06/23 06:02:03;;;;;;;1999.90;999.90;;;19.20;99.90;;;;;;5061003;28;20233;-83
2021/06/23 06:04:29;;;;;;;1999.90;999.90;;;19.30;99.90;;;;;;5042939;28;20691;-83
2021/06/23 06:06:54;;;;;;;1999.90;999.90;;;19.20;99.90;;;;;;5061892;28;20186;-83
2021/06/23 06:09:20;;;;;;;1999.90;999.90;;;19.20;99.90;;;;;;5043757;28;20207;-83
2021/06/23 06:11:46;;;;;;;1999.90;999.90;;;19.20;99.90;;;;;;5061863;28;20189;-83
2021/06/23 06:14:11;;;;;;;1999.90;999.90;;;19.30;99.90;;;;;;5060833;28;20212;-83
2021/06/23 06:16:38;;;;;;;1999.90;999.90;;;19.40;99.90;;;;;;5043653;28;20192;-83
2021/06/23 06:19:03;;;;;;;1999.90;999.90;;;19.40;99.90;;;;;;5061029;28;20184;-83
2021/06/23 06:21:29;;;;;;;1999.90;999.90;;;19.50;99.90;;;;;;5060790;28;20225;-83
2021/06/23 06:23:55;;;;;;;1999.90;999.90;;;19.70;99.90;;;;;;5061371;28;20213;-83
2021/06/23 06:26:21;;;;;;;1999.90;999.90;;;19.70;99.90;;;;;;5043117;28;20185;-83
2021/06/23 06:28:47;;;;;;;1999.90;999.90;;;19.80;99.90;;;;;;5060462;28;20180;-83
2021/06/23 06:31:12;;;;;;;1999.90;999.90;;;19.80;99.90;;;;;;5058617;28;20174;-83
2021/06/23 06:33:38;;;;;;;1999.90;999.90;;;19.80;99.90;;;;;;5054367;28;20185;-83
2021/06/23 06:36:04;;;;;;;1999.90;999.90;;;19.80;99.90;;;;;;5043591;28;20560;-83
2021/06/23 06:38:30;;;;;;;1999.90;999.90;;;19.80;99.90;;;;;;5061262;28;20261;-83
2021/06/23 06:40:56;;;;;;;1999.90;999.90;;;19.80;99.90;;;;;;5060970;28;20599;-83
2021/06/23 06:43:21;;;;;;;1999.90;999.90;;;19.70;99.90;;;;;;5060786;28;20213;-83
2021/06/23 06:45:49;;;;;;;1999.90;999.90;;;19.80;99.90;;;;;;5042633;28;20181;-83
2021/06/23 06:48:16;;;;;;;1999.90;999.90;;;19.80;99.90;;;;;;5060669;28;20285;-83
2021/06/23 06:50:41;;;;;;;1999.90;999.90;;;19.80;99.90;;;;;;5060430;28;20253;-83
2021/06/23 06:53:07;;;;;;;1999.90;999.90;;;19.80;99.90;;;;;;5058473;28;20240;-83
2021/06/23 06:55:33;;;;;;;1999.90;999.90;;;19.80;99.90;;;;;;5041031;28;20170;-83
2021/06/23 06:57:58;;;;;;;1999.90;999.90;;;19.90;99.90;;;;;;5057507;28;20254;-83
2021/06/23 07:00:24;;;;;;;1999.90;999.90;;;19.90;99.90;;;;;;5059789;28;20252;-83
2021/06/23 07:02:53;;;;;;;1999.90;999.90;;;19.90;99.90;;;;;;5060234;28;20287;-83
2021/06/23 07:05:19;;;;;;;1999.90;999.90;;;19.90;99.90;;;;;;5060385;28;20208;-85
2021/06/23 07:07:45;;;;;;;1999.90;999.90;;;19.90;99.90;;;;;;5042119;28;20208;-83
2021/06/23 07:10:11;;;;;;;1999.90;999.90;;;19.90;99.90;;;;;;5060616;28;20173;-83
2021/06/23 07:12:36;;;;;;;1999.90;999.90;;;19.90;99.90;;;;;;5059259;28;20240;-83
2021/06/23 07:15:03;;;;;;;1999.90;999.90;;;19.90;99.90;;;;;;5042277;28;20651;-83
2021/06/23 07:17:28;;;;;;;1999.90;999.90;;;19.90;99.90;;;;;;5059505;28;20185;-83
2021/06/23 07:19:54;;;;;;;1999.90;999.90;;;19.90;99.90;;;;;;5041742;28;20182;-83
2021/06/23 07:22:21;;;;;;;1999.90;999.90;;;19.90;99.90;;;;;;5051214;28;20202;-83
2021/06/23 07:24:47;;;;;;;1999.90;999.90;;;19.90;99.90;;;;;;5056840;28;20244;-83
2021/06/23 07:27:13;;;;;;;1999.90;999.90;;;20.00;99.90;;;;;;5042394;28;20636;-83
2021/06/23 07:29:38;;;;;;;1999.90;999.90;;;20.00;99.90;;;;;;5042319;28;20667;-83
2021/06/23 07:37:37;;;;;;;1999.90;999.90;;;20.20;99.90;;;;;;5060420;28;20176;-83
2021/06/23 07:40:04;;;;;;;1999.90;999.90;;;20.30;99.90;;;;;;5059647;28;20174;-83
2021/06/23 07:42:29;;;;;;;1999.90;999.90;;;20.30;99.90;;;;;;5059220;28;20213;-83
2021/06/23 07:45:01;;;;;;;1999.90;999.90;;;20.40;99.90;;;;;;5041597;28;20217;-83
2021/06/23 07:47:29;;;;;;;1999.90;999.90;;;20.50;99.90;;;;;;5060426;28;20201;-83
2021/06/23 07:49:55;;;;;;;1999.90;999.90;;;20.60;99.90;;;;;;5059888;28;20550;-83
2021/06/23 07:52:46;;;;;;;1999.90;999.90;;;20.60;99.90;;;;;;5059275;28;20200;-83
2021/06/23 08:10:56;;;;;;;1999.90;999.90;;;20.80;99.90;;;;;;5059294;28;20182;-83
2021/06/23 08:13:22;;;;;;;1999.90;999.90;;;20.80;99.90;;;;;;5044822;28;20236;-83
2021/06/23 08:15:49;;;;;;;1999.90;999.90;;;20.80;99.90;;;;;;5063656;28;20181;-83
2021/06/23 08:18:16;;;;;;;1999.90;999.90;;;20.80;99.90;;;;;;5063919;28;20205;-83
2021/06/23 08:20:42;;;;;;;1999.90;999.90;;;20.80;99.90;;;;;;5046392;28;20693;-84
2021/06/23 08:23:08;;;;;;;1999.90;999.90;;;20.80;99.90;;;;;;5063707;28;20209;-84
2021/06/23 08:25:33;;;;;;;1999.90;999.90;;;20.80;99.90;;;;;;5063481;28;20190;-83
2021/06/23 08:27:59;;;;;;;1999.90;999.90;;;20.90;99.90;;;;;;5063699;28;20227;-83
2021/06/23 08:30:25;;;;;;;1999.90;999.90;;;20.90;99.90;;;;;;5063463;28;20170;-83
2021/06/23 08:32:51;;;;;;;1999.90;999.90;;;21.00;99.90;;;;;;5063190;28;20194;-83
2021/06/23 08:35:17;;;;;;;1999.90;999.90;;;21.10;99.90;;;;;;5045230;28;20667;-83
2021/06/23 08:37:44;;;;;;;1999.90;999.90;;;21.10;99.90;;;;;;5038942;28;20179;-84
2021/06/23 08:40:12;;;;;;;1999.90;999.90;;;21.00;99.90;;;;;;5059177;28;20188;-83
2021/06/23 08:42:38;;;;;;;1999.90;999.90;;;21.10;99.90;;;;;;5063935;28;20215;-84
2021/06/23 08:45:08;;;;;;;1999.90;999.90;;;21.10;99.90;;;;;;5063623;28;20269;-84
2021/06/23 08:47:42;;;;;;;1999.90;999.90;;;21.20;99.90;;;;;;5046353;28;20184;-83
2021/06/23 08:50:13;;;;;;;1999.90;999.90;;;21.30;99.90;;;;;;5063630;28;20240;-83
2021/06/23 08:52:39;;;;;;;1999.90;999.90;;;21.40;99.90;;;;;;5063999;28;20194;-83
2021/06/23 08:55:06;;;;;;;1999.90;999.90;;;21.40;99.90;;;;;;5062880;28;20227;-83
2021/06/23 08:57:33;;;;;;;1999.90;999.90;;;21.60;99.90;;;;;;5041797;28;20199;-83
2021/06/23 09:00:04;;;;;;;1999.90;999.90;;;21.70;99.90;;;;;;5063923;28;20185;-84
2021/06/23 09:02:30;;;;;;;1999.90;999.90;;;21.80;99.90;;;;;;5063397;28;20204;-83
2021/06/23 09:05:01;;;;;;;1999.90;999.90;;;21.90;99.90;;;;;;5062029;28;20196;-83
2021/06/23 09:07:48;;;;;;;1999.90;999.90;;;22.00;99.90;;;;;;5083674;28;20690;-83
2021/06/23 09:10:23;;;;;;;1999.90;999.90;;;22.10;99.90;;;;;;5064047;28;20193;-83
2021/06/23 09:13:01;;;;;;;1999.90;999.90;;;22.10;99.90;;;;;;5082084;28;20246;-83
2021/06/23 09:15:56;;;;;;;1999.90;999.90;;;22.20;99.90;;;;;;5082422;28;20177;-84
2021/06/23 09:18:25;;;;;;;1999.90;999.90;;;22.00;99.90;;;;;;5081998;28;20208;-84
2021/06/23 09:20:54;;;;;;;1999.90;999.90;;;22.10;99.90;;;;;;5082386;28;20260;-83
2021/06/23 09:23:40;;;;;;;1999.90;999.90;;;22.00;99.90;;;;;;5081361;28;20683;-83
2021/06/23 09:26:11;;;;;;;1999.90;999.90;;;22.20;99.90;;;;;;5083583;28;20565;-84
2021/06/23 09:28:37;;;;;;;1999.90;999.90;;;22.30;99.90;;;;;;5081669;28;20169;-83
2021/06/23 09:31:06;;;;;;;1999.90;999.90;;;22.40;99.90;;;;;;5081283;28;20182;-83
2021/06/23 09:33:32;;;;;;;1999.90;999.90;;;22.40;99.90;;;;;;5081107;28;20177;-83
2021/06/23 09:36:17;;;;;;;1999.90;999.90;;;22.30;99.90;;;;;;5080798;28;20636;-84
2021/06/23 09:38:51;;;;;;;1999.90;999.90;;;22.50;99.90;;;;;;5080189;28;20189;-84
2021/06/23 09:41:32;;;;;;;1999.90;999.90;;;22.60;99.90;;;;;;5081174;28;20184;-84
2021/06/23 09:44:10;;;;;;;1999.90;999.90;;;22.70;99.90;;;;;;5080156;28;20281;-83
2021/06/23 09:46:38;;;;;;;1999.90;999.90;;;22.90;99.90;;;;;;5080838;28;20218;-84
2021/06/23 09:49:25;;;;;;;1999.90;999.90;;;23.00;99.90;;;;;;5080561;28;20169;-84
2021/06/23 09:52:11;;;;;;;1999.90;999.90;;;23.20;99.90;;;;;;5081402;28;20236;-84
2021/06/23 09:54:52;;;;;;;1999.90;999.90;;;23.30;99.90;;;;;;5062734;28;20177;-84
2021/06/23 09:57:18;;;;;;;1999.90;999.90;;;23.50;99.90;;;;;;5063899;28;20527;-84
2021/06/23 09:59:50;;;;;;;1999.90;999.90;;;23.60;99.90;;;;;;5080946;28;20196;-84
2021/06/23 10:02:30;;;;;;;1999.90;999.90;;;23.80;99.90;;;;;;5081055;28;20201;-83
2021/06/23 10:04:58;;;;;;;1999.90;999.90;;;23.70;99.90;;;;;;5062906;28;20226;-84
2021/06/23 10:07:44;;;;;;;1999.90;999.90;;;23.40;99.90;;;;;;5081227;28;20173;-84
2021/06/23 10:10:12;;;;;;;1999.90;999.90;;;23.20;99.90;;;;;;5063356;28;20258;-84
2021/06/23 10:12:38;;;;;;;1999.90;999.90;;;23.20;99.90;;;;;;5080606;28;20193;-84
2021/06/23 10:15:04;;;;;;;1999.90;999.90;;;23.20;99.90;;;;;;5062145;28;20555;-84
2021/06/23 10:17:31;;;;;;;1999.90;999.90;;;23.40;99.90;;;;;;5080465;28;20246;-84
2021/06/23 10:19:57;;;;;;;1999.90;999.90;;;23.80;99.90;;;;;;5080445;28;20188;-84
2021/06/23 10:22:23;;;;;;;1999.90;999.90;;;23.90;99.90;;;;;;5058076;28;20668;-80
2021/06/23 10:24:52;;;;;;;1999.90;999.90;;;24.00;99.90;;;;;;5071312;28;20198;-78
2021/06/23 10:27:21;;;;;;;1999.90;999.90;;;24.20;99.90;;;;;;5064523;28;20169;-78
2021/06/23 10:29:52;;;;;;;1999.90;999.90;;;24.10;99.90;;;;;;5073688;28;20174;-78
2021/06/23 10:32:19;;;;;;;1999.90;999.90;;;23.90;99.90;;;;;;5070071;28;20197;-78
2021/06/23 10:34:44;;;;;;;1999.90;999.90;;;24.00;99.90;;;;;;5052688;28;20179;-79
2021/06/23 10:37:10;;;;;;;1999.90;999.90;;;24.10;99.90;;;;;;5072508;28;20185;-79
2021/06/23 10:39:37;;;;;;;1999.90;999.90;;;24.00;99.90;;;;;;5072233;28;20181;-78
2021/06/23 10:42:05;;;;;;;1999.90;999.90;;;23.90;99.90;;;;;;5073575;28;20221;-78
2021/06/23 10:44:37;;;;;;;1999.90;999.90;;;23.90;99.90;;;;;;5070226;28;20197;-78
2021/06/23 10:47:08;;;;;;;1999.90;999.90;;;23.90;99.90;;;;;;5068799;28;20560;-78
2021/06/23 10:49:43;;;;;;;1999.90;999.90;;;23.90;99.90;;;;;;5072485;28;20243;-77
2021/06/23 10:52:25;;;;;;;1999.90;999.90;;;23.90;99.90;;;;;;5069343;28;20621;-78
2021/06/23 10:54:55;;;;;;;1999.90;999.90;;;23.90;99.90;;;;;;5066616;28;20173;-78
2021/06/23 10:57:29;;;;;;;1999.90;999.90;;;23.70;99.90;;;;;;5069302;28;20600;-77
2021/06/23 11:00:10;;;;;;;1999.90;999.90;;;23.70;99.90;;;;;;5069949;28;20188;-78
2021/06/23 11:02:41;;;;;;;1999.90;999.90;;;23.90;99.90;;;;;;5052160;28;20284;-77
2021/06/23 11:05:08;;;;;;;1999.90;999.90;;;23.90;99.90;;;;;;5068761;28;20250;-78
2021/06/23 11:07:34;;;;;;;1999.90;999.90;;;24.00;99.90;;;;;;5070357;28;20636;-78
2021/06/23 11:10:15;;;;;;;1999.90;999.90;;;24.20;99.90;;;;;;5070869;28;20203;-79
2021/06/23 11:12:44;;;;;;;1999.90;999.90;;;24.40;99.90;;;;;;5042700;28;20537;-77
2021/06/23 11:15:14;;;;;;;1999.90;999.90;;;24.60;99.90;;;;;;5071300;28;20568;-78
2021/06/23 11:17:40;;;;;;;1999.90;999.90;;;24.60;99.90;;;;;;5070381;28;20179;-80
2021/06/23 11:20:26;;;;;;;1999.90;999.90;;;24.80;99.90;;;;;;5072887;28;20251;-78
2021/06/23 11:22:56;;;;;;;1999.90;999.90;;;24.80;99.90;;;;;;5057393;28;20227;-78
2021/06/23 11:25:34;;;;;;;1999.90;999.90;;;24.80;99.90;;;;;;5070701;28;20192;-78
2021/06/23 11:28:09;;;;;;;1999.90;999.90;;;25.00;99.90;;;;;;5070459;28;20179;-79
2021/06/23 11:31:06;;;;;;;1999.90;999.90;;;24.90;99.90;;;;;;5069386;28;20631;-78
2021/06/23 11:33:38;;;;;;;1999.90;999.90;;;25.00;99.90;;;;;;5046834;28;20203;-78
2021/06/23 11:36:06;;;;;;;1999.90;999.90;;;24.80;99.90;;;;;;5065830;28;20223;-78
2021/06/23 11:38:32;;;;;;;1999.90;999.90;;;24.60;99.90;;;;;;5054956;28;20177;-79
2021/06/23 11:40:59;;;;;;;1999.90;999.90;;;24.40;99.90;;;;;;5072802;28;20530;-79
2021/06/23 11:43:25;;;;;;;1999.90;999.90;;;24.40;99.90;;;;;;5072547;28;20299;-78
2021/06/23 11:45:51;;;;;;;1999.90;999.90;;;24.60;99.90;;;;;;5072678;28;20599;-79
2021/06/23 11:48:18;;;;;;;1999.90;999.90;;;24.90;99.90;;;;;;5072956;28;20208;-77
2021/06/23 11:50:45;;;;;;;1999.90;999.90;;;25.00;99.90;;;;;;5072759;28;20661;-78
2021/06/23 11:53:12;;;;;;;1999.90;999.90;;;25.10;99.90;;;;;;5054827;28;20561;-78
2021/06/23 11:55:39;;;;;;;1999.90;999.90;;;25.20;99.90;;;;;;5072845;28;20172;-78
2021/06/23 11:58:05;;;;;;;1999.90;999.90;;;25.30;99.90;;;;;;5073962;28;20169;-79
2021/06/23 12:00:31;;;;;;;1999.90;999.90;;;25.10;99.90;;;;;;5055664;28;20257;-79
2021/06/23 12:02:59;;;;;;;1999.90;999.90;;;24.70;99.90;;;;;;5066954;28;20631;-76
2021/06/23 12:05:29;;;;;;;1999.90;999.90;;;24.60;99.90;;;;;;5071910;28;20272;-77
2021/06/23 12:07:56;;;;;;;1999.90;999.90;;;24.50;99.90;;;;;;5072124;28;20176;-78
2021/06/23 12:10:23;;;;;;;1999.90;999.90;;;24.60;99.90;;;;;;5066949;28;20177;-78
2021/06/23 12:12:49;;;;;;;1999.90;999.90;;;24.70;99.90;;;;;;5065540;28;20239;-78
2021/06/23 12:15:20;;;;;;;1999.90;999.90;;;24.90;99.90;;;;;;5048196;28;20188;-79
2021/06/23 12:17:50;;;;;;;1999.90;999.90;;;24.90;99.90;;;;;;5068915;28;20530;-79
2021/06/23 12:20:16;;;;;;;1999.90;999.90;;;25.00;99.90;;;;;;5064345;28;20644;-78
2021/06/23 12:22:42;;;;;;;1999.90;999.90;;;24.90;99.90;;;;;;5071860;28;20227;-78
2021/06/23 12:25:11;;;;;;;1999.90;999.90;;;24.90;99.90;;;;;;5071206;28;20197;-78